Alys Beach, Florida
Current Conditions -  °F | °C
As of 4:53 AM on Tuesday 21 Oct 2014 (Local Time) from KECP Reporting Station
Clear Clear  
Wind Chill: 56°   Ceiling: Unl
Heat Index: 56°   Visibility: 10mi
Dew Point: 52°   Wind: 0mph
Humidity: 87%   Direction: NA
Pressure: 29.98"   Gusts: NA
Location:  30.2534°N, 85.9486°W
Report Text: KECP 210953Z AUTO 00000KT 10SM CLR 13/11 A2998 RMK AO2 SLP162 T01330111
Loading
Personal Weather Stations






























Interactive Weather Map New forecast layout! Learn more

10-Day Weather Forecast

Advertisements
Track Severe Weather on mobile